Latest Weather Observations for Bridgetown

IDW60801

Issued at 10:23 pm WST Wednesday 8 July 2020 (issued every 10 minutes, with the page automatically refreshed every 10 minutes)

About weather observations | Map of weather stations | Latest weather observations for WA | Other Formats
Station Details ID: 009617 Name: BRIDGETOWN Lat: -33.95 Lon: 116.13 Height: 178.66 m
Data from the previous 72 hours. | See also: Recent months at Bridgetown
Date/Time
WST
Temp
°C
App
Temp
°C
Dew
Point
°C
Rel
Hum
%
Delta-T
°C
Wind Press
QNH
hPa
Press
MSL
hPa
Rain since
9am
mm
Dir  Spd
km/h
Gust
km/h
Spd
kts
Gust
kts
08/10:00pm 5.7 4.7 5.6 99 0.0 CALM 0 0 0 0 1025.0 1025.2 0.6
08/09:30pm 5.9 4.9 5.8 99 0.0 CALM 0 0 0 0 1024.8 1025.0 0.6
08/09:00pm 6.6 5.8 6.5 99 0.0 CALM 0 0 0 0 1024.6 1024.8 0.6
08/08:30pm 7.5 6.9 7.4 99 0.0 CALM 0 0 0 0 1024.5 1024.7 0.6
08/08:00pm 8.2 7.8 8.1 99 0.0 CALM 0 0 0 0 1024.5 1024.7 0.6
08/07:30pm 9.0 8.7 8.7 98 0.1 CALM 0 0 0 0 1024.3 1024.5 0.6
08/07:00pm 9.7 9.5 9.1 96 0.3 CALM 0 0 0 0 1024.1 1024.3 0.6
08/06:30pm 10.4 9.9 9.3 93 0.6 S 2 6 1 3 1023.9 1024.1 0.6
08/06:00pm 10.9 8.8 9.7 92 0.6 S 11 19 6 10 1023.8 1024.0 0.6
08/05:30pm 11.3 9.9 9.6 89 0.9 S 7 13 4 7 1023.5 1023.7 0.6
08/05:00pm 11.5 10.4 10.1 91 0.7 S 6 11 3 6 1023.4 1023.6 0.6
08/04:30pm 11.8 9.9 10.4 91 0.7 S 11 19 6 10 1023.3 1023.5 0.6
08/04:00pm 12.9 11.8 10.6 86 1.2 S 7 13 4 7 1023.0 1023.2 0.4
08/03:30pm 13.9 12.6 11.2 84 1.4 S 9 15 5 8 1022.7 1022.9 0.4
08/03:00pm 13.2 12.7 10.7 85 1.3 SW 4 11 2 6 1022.6 1022.8 0.4
08/02:30pm 12.0 11.1 10.6 91 0.7 SW 6 9 3 5 1022.6 1022.8 0.4
08/02:00pm 14.4 12.8 8.6 68 2.9 SSW 7 17 4 9 1022.4 1022.6 0.2
08/01:30pm 13.6 11.8 9.3 75 2.2 SW 9 17 5 9 1022.7 1022.9 0.2
08/01:00pm 14.2 12.5 7.7 65 3.2 SW 6 13 3 7 1022.8 1023.0 0.2
08/12:30pm 14.7 13.5 9.5 71 2.7 WSW 6 9 3 5 1023.2 1023.4 0.2
08/12:00pm 14.0 13.0 9.0 72 2.5 SW 4 13 2 7 1023.6 1023.8 0.2
08/11:30am 14.0 13.8 10.4 79 1.9 SE 2 4 1 2 1023.9 1024.1 0.2
08/11:00am 12.4 11.8 10.5 88 1.0 ENE 4 6 2 3 1024.0 1024.2 0.2
08/10:30am 11.2 11.1 10.7 97 0.3 SSE 2 4 1 2 1024.2 1024.4 0.2
08/10:00am 10.5 10.7 10.5 100 0.0 CALM 0 4 0 2 1024.2 1024.4 0.2
08/09:30am 9.7 9.7 9.7 100 0.0 CALM 0 0 0 0 1024.0 1024.2 0.2
08/09:00am 8.7 8.4 8.7 100 0.0 CALM 0 0 0 0 1023.9 1024.1 3.0
08/08:30am 7.3 6.7 7.3 100 0.0 CALM 0 0 0 0 1023.5 1023.7 3.0
08/08:00am 6.7 5.9 6.7 100 0.0 CALM 0 0 0 0 1023.1 1023.3 3.0
08/07:30am 6.4 5.6 6.3 99 0.0 CALM 0 2 0 1 1022.7 1022.9 3.0
08/07:00am 6.4 5.6 6.4 100 0.0 CALM 0 0 0 0 1022.1 1022.3 3.0
08/06:30am 6.4 4.8 6.4 100 0.0 NNW 4 6 2 3 1021.8 1022.0 3.0
08/06:00am 6.0 5.1 5.9 99 0.0 CALM 0 6 0 3 1021.7 1021.9 3.0
08/05:30am 5.2 4.1 5.1 99 0.0 CALM 0 0 0 0 1021.5 1021.7 3.0
08/05:00am 5.2 4.1 5.1 99 0.0 CALM 0 0 0 0 1021.5 1021.7 3.0
08/04:30am 5.9 4.6 5.8 99 0.0 NW 2 4 1 2 1021.2 1021.4 3.0
08/04:00am 6.1 4.4 6.0 99 0.0 NW 4 7 2 4 1021.3 1021.5 3.0
08/03:30am 5.4 4.3 5.3 99 0.0 CALM 0 0 0 0 1021.4 1021.6 3.0
08/03:00am 5.0 3.9 4.9 99 0.0 CALM 0 0 0 0 1021.4 1021.6 3.0
08/02:30am 5.4 4.3 5.3 99 0.0 CALM 0 0 0 0 1021.3 1021.5 3.0
08/02:00am 6.0 5.1 5.9 99 0.0 CALM 0 2 0 1 1021.4 1021.6 3.0
08/01:30am 6.7 4.8 6.6 99 0.0 NW 6 7 3 4 1021.3 1021.5 3.0
08/01:00am 7.3 5.5 7.2 99 0.0 NW 6 7 3 4 1021.3 1021.5 3.0
08/12:30am 7.1 6.3 6.4 95 0.3 CALM 0 0 0 0 1021.2 1021.4 2.8
08/12:00am 8.2 7.6 7.3 94 0.4 CALM 0 0 0 0 1021.2 1021.4 2.8
 
Date/Time
WST
Temp
°C
App
Temp
°C
Dew
Point
°C
Rel
Hum
%
Delta-T
°C
Wind Press
QNH
hPa
Press
MSL
hPa
Rain since
9am
mm
Dir  Spd
km/h
Gust
km/h
Spd
kts
Gust
kts
07/11:30pm 8.5 7.9 7.3 92 0.6 CALM 0 6 0 3 1021.3 1021.5 2.8
07/11:00pm 8.6 7.6 7.2 91 0.7 WNW 2 7 1 4 1021.1 1021.3 2.8
07/10:30pm 8.2 7.7 7.8 97 0.2 CALM 0 0 0 0 1021.0 1021.2 2.8
07/10:00pm 9.1 8.7 8.3 95 0.4 CALM 0 0 0 0 1020.8 1020.9 2.8
07/09:30pm 9.9 8.9 8.8 93 0.5 NNW 4 6 2 3 1020.5 1020.7 2.8
07/09:00pm 10.7 9.9 9.6 93 0.6 NW 4 6 2 3 1020.4 1020.6 2.8
07/08:30pm 11.0 10.8 10.5 97 0.3 NW 2 7 1 4 1020.2 1020.4 2.8
07/08:00pm 11.2 10.6 10.4 95 0.4 NW 4 7 2 4 1020.0 1020.2 2.8
07/07:30pm 11.5 10.4 10.7 95 0.4 WNW 7 17 4 9 1020.0 1020.2 2.8
07/07:00pm 11.8 11.5 11.5 98 0.2 WNW 4 6 2 3 1019.7 1019.9 1.6
07/06:30pm 12.3 11.8 10.7 90 0.8 NW 4 9 2 5 1019.4 1019.6 0.6
07/06:00pm 11.9 11.3 10.3 90 0.8 NNW 4 7 2 4 1019.1 1019.3 0.6
07/05:30pm 12.1 10.8 10.0 87 1.1 NNW 7 11 4 6 1019.0 1019.2 0.6
07/05:00pm 12.7 11.4 10.1 84 1.3 NNW 7 11 4 6 1018.9 1019.1 0.6
07/04:30pm 13.8 11.6 9.5 75 2.2 NNW 11 19 6 10 1019.0 1019.2 0.6
07/04:00pm 14.3 12.0 8.9 70 2.8 NW 11 22 6 12 1019.0 1019.2 0.6
07/03:30pm 14.9 13.6 9.3 69 2.9 WNW 6 17 3 9 1019.0 1019.2 0.6
07/03:00pm 14.7 12.5 7.7 63 3.5 NW 9 17 5 9 1018.9 1019.1 0.6
07/02:30pm 14.6 12.3 7.6 63 3.5 NW 9 17 5 9 1019.0 1019.2 0.6
07/02:00pm 14.9 11.8 7.2 60 3.8 NW 13 26 7 14 1019.0 1019.2 0.6
07/01:30pm 13.3 10.5 8.6 73 2.4 WNW 13 30 7 16 1019.6 1019.8 0.6
07/01:00pm 14.8 13.1 10.0 73 2.5 WNW 9 22 5 12 1019.7 1019.9 0.6
07/12:30pm 12.6 11.4 10.3 86 1.2 NW 7 15 4 8 1020.2 1020.4 0.6
07/12:00pm 13.5 11.9 10.1 80 1.8 WNW 9 20 5 11 1020.7 1020.8 0.4
07/11:30am 12.4 9.9 9.6 83 1.4 WNW 13 22 7 12 1021.2 1021.4 0.4
07/11:00am 13.1 10.9 9.4 78 1.9 NW 11 20 6 11 1021.1 1021.3 0.2
07/10:30am 12.0 11.0 9.0 82 1.5 NNW 4 7 2 4 1021.2 1021.4 0.2
07/10:00am 11.1 9.7 9.7 91 0.7 WNW 7 19 4 10 1021.6 1021.8 0.0
07/09:30am 11.5 10.8 10.2 92 0.7 NNW 4 7 2 4 1021.1 1021.3 0.0
07/09:00am 11.3 9.9 9.7 90 0.8 NNW 7 11 4 6 1020.9 1021.0 13.2
07/08:30am 11.1 9.9 10.3 95 0.4 NNW 7 13 4 7 1020.7 1020.8 13.2
07/08:00am 10.6 10.0 10.4 99 0.1 NNW 4 6 2 3 1020.3 1020.5 13.2
07/07:30am 10.5 10.2 10.2 98 0.2 NNW 2 6 1 3 1020.0 1020.2 13.2
07/07:00am 10.7 9.7 10.4 98 0.2 NNW 6 11 3 6 1019.7 1019.9 13.2
07/06:30am 10.8 9.9 10.5 98 0.2 NNW 6 9 3 5 1019.3 1019.5 13.2
07/06:00am 10.9 10.0 10.7 99 0.1 NW 6 13 3 7 1018.9 1019.1 13.2
07/05:30am 11.0 9.9 10.8 99 0.1 NW 7 13 4 7 1018.6 1018.8 13.2
07/05:00am 11.2 10.2 10.9 98 0.2 NW 7 13 4 7 1018.4 1018.6 13.0
07/04:30am 11.4 10.6 11.1 98 0.2 NW 6 11 3 6 1018.1 1018.3 13.0
07/04:00am 11.5 10.5 11.0 97 0.3 NNW 7 13 4 7 1018.1 1018.3 12.8
07/03:30am 11.5 10.6 11.3 99 0.1 NW 7 13 4 7 1017.9 1018.1 12.8
07/03:00am 11.6 10.7 11.4 99 0.1 NW 7 17 4 9 1017.8 1018.0 12.6
07/02:30am 11.7 10.8 11.4 98 0.2 NW 7 17 4 9 1017.5 1017.7 12.4
07/02:00am 11.8 10.5 11.3 97 0.3 NW 9 22 5 12 1017.4 1017.6 12.4
07/01:30am 11.8 10.9 11.5 98 0.2 NW 7 13 4 7 1017.1 1017.3 12.2
07/01:00am 12.0 11.1 11.5 97 0.3 NW 7 17 4 9 1017.0 1017.2 12.0
07/12:30am 12.0 10.4 11.4 96 0.3 NW 11 20 6 11 1016.8 1017.0 12.0
07/12:00am 12.1 10.9 11.5 96 0.3 NW 9 20 5 11 1016.7 1016.9 11.8
 
Date/Time
WST
Temp
°C
App
Temp
°C
Dew
Point
°C
Rel
Hum
%
Delta-T
°C
Wind Press
QNH
hPa
Press
MSL
hPa
Rain since
9am
mm
Dir  Spd
km/h
Gust
km/h
Spd
kts
Gust
kts
06/11:30pm 11.9 10.7 11.7 99 0.1 NW 9 17 5 9 1016.7 1016.9 11.8
06/11:00pm 12.1 10.5 11.6 97 0.3 NW 11 22 6 12 1016.6 1016.8 11.6
06/10:30pm 12.2 10.6 11.6 96 0.3 NW 11 24 6 13 1016.3 1016.5 11.6
06/10:00pm 12.2 11.0 11.7 97 0.3 NW 9 24 5 13 1016.2 1016.3 11.4
06/09:30pm 12.3 10.4 11.7 96 0.3 NW 13 28 7 15 1016.0 1016.1 11.4
06/09:00pm 12.3 10.4 11.7 96 0.3 NW 13 22 7 12 1015.7 1015.8 11.4
06/08:30pm 12.2 10.6 11.7 97 0.3 NW 11 22 6 12 1015.5 1015.6 11.2
06/08:00pm 12.1 10.6 11.8 98 0.2 NW 11 28 6 15 1015.4 1015.5 11.0
06/07:30pm 12.1 9.8 11.6 97 0.3 NW 15 26 8 14 1015.1 1015.2 10.6
06/07:00pm 12.1 10.4 11.3 95 0.4 NW 11 22 6 12 1014.8 1014.9 10.4
06/06:30pm 12.2 9.4 11.3 94 0.5 NW 17 30 9 16 1014.4 1014.6 10.2
06/06:00pm 12.7 10.6 11.1 90 0.8 NW 13 26 7 14 1014.0 1014.2 10.0
06/05:30pm 12.7 9.8 11.1 90 0.8 NW 17 28 9 15 1013.5 1013.7 10.0
06/05:00pm 12.6 9.8 11.2 91 0.7 NW 17 41 9 22 1013.2 1013.4 10.0
06/04:30pm 13.2 11.1 11.3 88 1.0 NW 13 32 7 17 1012.9 1013.1 9.6
06/04:00pm 13.3 12.2 11.9 91 0.8 NW 9 24 5 13 1012.5 1012.7 9.6
06/03:30pm 14.2 10.9 11.0 81 1.7 NW 19 33 10 18 1011.8 1012.0 8.6
06/03:00pm 14.2 12.3 11.7 85 1.4 NNW 13 28 7 15 1011.5 1011.7 8.6
06/02:30pm 13.9 11.7 12.1 89 1.0 NNW 15 28 8 15 1011.5 1011.7 8.6
06/02:00pm 12.8 11.5 12.5 98 0.2 NW 11 20 6 11 1011.5 1011.7 8.6
06/01:30pm 12.3 9.7 12.0 98 0.2 NNW 17 24 9 13 1011.8 1012.0 5.2
06/01:00pm 12.5 9.8 11.7 95 0.4 NNW 17 30 9 16 1011.7 1011.9 3.8
06/12:30pm 11.9 9.6 11.6 98 0.2 N 15 24 8 13 1012.0 1012.2 2.8
06/12:00pm 12.7 8.7 10.4 86 1.2 N 22 41 12 22 1012.4 1012.6 1.2
06/11:30am 14.0 10.2 11.2 83 1.5 N 22 33 12 18 1012.2 1012.4 1.2
06/11:00am 13.4 9.5 10.8 84 1.4 NNW 22 35 12 19 1012.7 1012.9 1.2
06/10:30am 12.8 10.3 11.2 90 0.8 NNW 15 28 8 15 1013.0 1013.2 1.2
06/10:00am 12.9 9.7 11.3 90 0.9 N 19 33 10 18 1012.8 1013.0 0.4
06/09:30am 13.3 10.0 11.5 89 1.0 N 20 32 11 17 1012.5 1012.7 0.2
06/09:00am 13.3 10.9 11.5 89 1.0 N 15 22 8 12 1012.5 1012.7 20.4
06/08:30am 12.9 11.2 11.1 89 1.0 N 11 17 6 9 1012.5 1012.7 20.2
06/08:00am 12.2 9.8 11.4 95 0.4 NNW 15 24 8 13 1012.6 1012.8 20.2
06/07:30am 11.1 10.1 10.9 99 0.1 NNW 7 9 4 5 1012.3 1012.5 20.2
06/07:00am 11.2 10.2 10.9 98 0.2 N 7 11 4 6 1012.2 1012.4 20.2
06/06:30am 11.4 10.1 11.1 98 0.2 NNW 9 13 5 7 1012.1 1012.3 20.0
06/06:00am 11.2 10.2 11.0 99 0.1 NNW 7 11 4 6 1012.2 1012.4 20.0
06/05:30am 10.9 10.0 10.7 99 0.1 NNW 6 7 3 4 1012.2 1012.4 20.0
06/05:00am 11.6 10.7 11.3 98 0.2 NNW 7 13 4 7 1011.9 1012.1 20.0
06/04:30am 11.9 11.3 11.6 98 0.2 NNW 6 9 3 5 1012.0 1012.2 20.0
06/04:00am 12.3 10.3 11.5 95 0.4 N 13 20 7 11 1012.1 1012.3 20.0
06/03:30am 12.5 9.8 11.7 95 0.4 NNW 17 30 9 16 1012.1 1012.3 20.0
06/03:00am 12.3 10.2 11.2 93 0.6 N 13 20 7 11 1012.1 1012.3 19.8
06/02:30am 12.7 10.3 11.3 91 0.7 N 15 22 8 12 1012.1 1012.3 19.8
06/02:00am 12.8 10.4 11.5 92 0.7 N 15 22 8 12 1012.2 1012.4 19.8
06/01:30am 12.6 11.1 11.8 95 0.4 N 11 17 6 9 1012.3 1012.5 19.6
06/01:00am 12.6 11.5 12.0 96 0.3 N 9 13 5 7 1012.4 1012.6 18.6
06/12:30am 12.5 11.9 12.3 99 0.1 N 7 17 4 9 1013.0 1013.2 18.6
06/12:00am 12.7 12.3 12.4 98 0.2 NW 6 9 3 5 1013.1 1013.3 13.8
 
Date/Time
WST
Temp
°C
App
Temp
°C
Dew
Point
°C
Rel
Hum
%
Delta-T
°C
Wind Press
QNH
hPa
Press
MSL
hPa
Rain since
9am
mm
Dir  Spd
km/h
Gust
km/h
Spd
kts
Gust
kts
05/11:30pm 13.0 11.8 11.7 92 0.7 NNW 9 17 5 9 1013.8 1014.0 12.8
05/11:00pm 12.9 11.7 11.5 91 0.7 NNW 9 13 5 7 1013.7 1013.9 12.8
05/10:30pm 11.7 11.8 11.5 99 0.1 NNE 2 7 1 4 1013.8 1014.0 12.8

Other formats

Comma delimited format used in spreadsheet applications
http://www.bom.gov.au/fwo/IDW60801/IDW60801.95632.axf

JavaScript Object Notation format (JSON) in row-major order
http://www.bom.gov.au/fwo/IDW60801/IDW60801.95632.json

Data quality

Most of these data are generated automatically and are frequently updated. Quality checks on data are not normally performed. It is possible for incorrect values to appear. Refer to information at About Latest Weather Observations and please check the disclaimer before using these data.